createdAt,value
2019-04-14T00:00:01.237Z,5.44
2019-04-14T00:01:02.183Z,5.51
2019-04-14T00:02:01.107Z,5.49
2019-04-14T00:03:02.221Z,5.48
2019-04-14T00:04:01.050Z,5.52
2019-04-14T00:05:01.864Z,5.51
2019-04-14T00:06:01.028Z,5.51
2019-04-14T00:07:01.531Z,5.59
2019-04-14T00:08:01.016Z,5.52
2019-04-14T00:09:01.096Z,5.52
2019-04-14T00:10:00.996Z,5.55
2019-04-14T00:11:01.763Z,5.63
2019-04-14T00:12:03.100Z,5.56
2019-04-14T00:13:00.962Z,5.48
2019-04-14T00:14:00.983Z,5.55
2019-04-14T00:15:02.394Z,5.58
2019-04-14T00:16:00.975Z,5.52
2019-04-14T00:17:02.016Z,5.55
2019-04-14T00:18:01.064Z,5.52
2019-04-14T00:19:00.892Z,5.48
2019-04-14T00:20:01.024Z,5.51
2019-04-14T00:21:00.878Z,5.56
2019-04-14T00:22:00.938Z,5.51
2019-04-14T00:23:02.133Z,5.48
2019-04-14T00:24:00.893Z,5.55
2019-04-14T00:25:02.264Z,5.49
2019-04-14T00:26:00.865Z,5.49
2019-04-14T00:27:01.956Z,5.56
2019-04-14T00:28:00.809Z,5.52
2019-04-14T00:29:00.844Z,5.55
2019-04-14T00:30:01.129Z,5.55
2019-04-14T00:31:00.770Z,5.60
2019-04-14T00:32:00.950Z,5.59
2019-04-14T00:33:01.798Z,5.65
2019-04-14T00:34:00.795Z,5.51
2019-04-14T00:35:01.740Z,5.55
2019-04-14T00:36:00.717Z,5.52
2019-04-14T00:37:01.286Z,5.56
2019-04-14T00:38:01.229Z,5.58
2019-04-14T00:39:00.967Z,5.56
2019-04-14T00:40:01.873Z,5.55
2019-04-14T00:41:00.735Z,5.55
2019-04-14T00:42:03.338Z,5.56
2019-04-14T00:43:00.663Z,5.56
2019-04-14T00:44:01.332Z,5.56
2019-04-14T00:45:00.623Z,5.47
2019-04-14T00:46:01.353Z,5.48
2019-04-14T00:47:00.668Z,5.48
2019-04-14T00:48:07.524Z,5.48
2019-04-14T00:49:02.736Z,5.45
2019-04-14T00:50:01.663Z,5.45
2019-04-14T00:51:00.620Z,5.41
2019-04-14T00:52:01.491Z,5.33
2019-04-14T00:53:01.215Z,5.48
2019-04-14T00:54:00.525Z,5.45
2019-04-14T00:55:00.964Z,5.37
2019-04-14T00:56:00.503Z,5.48
2019-04-14T00:57:00.908Z,5.40
2019-04-14T00:58:01.589Z,5.44
2019-04-14T00:59:00.634Z,5.38
2019-04-14T01:00:01.691Z,5.37
2019-04-14T01:01:00.542Z,5.44
2019-04-14T01:02:01.312Z,5.41
2019-04-14T01:03:00.481Z,5.48
2019-04-14T01:04:01.247Z,5.33
2019-04-14T01:05:00.405Z,5.45
2019-04-14T01:06:01.194Z,5.42
2019-04-14T01:07:00.400Z,5.38
2019-04-14T01:08:00.982Z,5.38
2019-04-14T01:09:00.371Z,5.40
2019-04-14T01:10:00.353Z,5.40
2019-04-14T01:11:00.998Z,5.26
2019-04-14T01:12:01.660Z,5.33
2019-04-14T01:13:00.611Z,5.30
2019-04-14T01:14:01.489Z,5.29
2019-04-14T01:15:00.730Z,5.32
2019-04-14T01:16:07.821Z,5.27
2019-04-14T01:17:02.641Z,5.30
2019-04-14T01:18:01.398Z,5.32
2019-04-14T01:19:00.466Z,5.27
2019-04-14T01:20:01.324Z,5.33
2019-04-14T01:21:00.354Z,5.26
2019-04-14T01:22:01.044Z,5.29
2019-04-14T01:23:00.226Z,5.15
2019-04-14T01:24:01.047Z,5.23
2019-04-14T01:25:00.195Z,5.27
2019-04-14T01:26:00.675Z,5.26
2019-04-14T01:27:00.184Z,5.15
2019-04-14T01:28:00.359Z,5.30
2019-04-14T01:29:01.390Z,5.24
2019-04-14T01:30:00.381Z,5.22
2019-04-14T01:31:01.181Z,5.19
2019-04-14T01:32:00.201Z,5.29
2019-04-14T01:33:01.099Z,5.26
2019-04-14T01:34:00.104Z,5.23
2019-04-14T01:35:00.996Z,5.12
2019-04-14T01:36:00.083Z,5.08
2019-04-14T01:37:00.800Z,5.14
2019-04-14T01:38:00.056Z,5.19
2019-04-14T01:39:00.337Z,5.15
2019-04-14T01:40:00.970Z,5.11
2019-04-14T01:41:00.025Z,5.12
2019-04-14T01:42:00.722Z,5.04
2019-04-14T01:43:00.013Z,5.11
2019-04-14T01:44:00.360Z,5.12
2019-04-14T01:44:59.981Z,5.09
2019-04-14T01:46:09.581Z,5.08
2019-04-14T01:47:01.065Z,5.01
2019-04-14T01:47:59.955Z,5.06
2019-04-14T01:49:00.703Z,5.08
2019-04-14T01:49:59.934Z,4.97
2019-04-14T01:51:00.541Z,5.09
2019-04-14T01:51:59.916Z,5.06
2019-04-14T01:53:01.040Z,5.09
2019-04-14T01:53:59.893Z,5.09
2019-04-14T01:55:00.430Z,5.06
2019-04-14T01:55:59.884Z,5.17
2019-04-14T01:57:00.278Z,5.05
2019-04-14T01:58:01.002Z,5.14
2019-04-14T01:59:00.037Z,5.08
2019-04-14T02:00:00.996Z,5.14
2019-04-14T02:00:59.831Z,5.12
2019-04-14T02:02:00.761Z,5.14
2019-04-14T02:02:59.817Z,5.19
2019-04-14T02:04:00.648Z,5.11
2019-04-14T02:04:59.768Z,5.17
2019-04-14T02:06:00.379Z,5.14
2019-04-14T02:06:59.766Z,5.12
2019-04-14T02:08:00.133Z,5.09
2019-04-14T02:09:01.066Z,5.12
2019-04-14T02:09:59.719Z,5.12
2019-04-14T02:11:00.868Z,5.08
2019-04-14T02:11:59.696Z,4.96
2019-04-14T02:13:00.639Z,5.01
2019-04-14T02:13:59.678Z,4.99
2019-04-14T02:15:00.435Z,5.01
2019-04-14T02:16:12.809Z,4.99
2019-04-14T02:17:02.655Z,5.02
2019-04-14T02:18:00.896Z,4.88
2019-04-14T02:19:00.312Z,5.02
2019-04-14T02:20:00.997Z,5.06
2019-04-14T02:20:59.975Z,4.97
2019-04-14T02:22:00.634Z,4.99
2019-04-14T02:22:59.629Z,4.94
2019-04-14T02:24:00.456Z,4.93
2019-04-14T02:24:59.563Z,4.94
2019-04-14T02:26:00.107Z,4.87
2019-04-14T02:26:59.554Z,4.84
2019-04-14T02:28:00.116Z,4.83
2019-04-14T02:28:59.518Z,4.84
2019-04-14T02:30:00.326Z,4.87
2019-04-14T02:31:13.408Z,4.77
2019-04-14T02:32:33.480Z,4.80
2019-04-14T02:33:37.765Z,4.69
2019-04-14T02:34:34.808Z,4.83
2019-04-14T02:35:35.128Z,4.71
2019-04-14T02:37:26.682Z,4.67
2019-04-14T02:38:34.120Z,4.65
2019-04-14T02:39:36.458Z,4.53
2019-04-14T02:41:31.550Z,4.61
2019-04-14T02:41:49.460Z,4.62
2019-04-14T02:42:39.844Z,4.62
2019-04-14T02:43:33.307Z,4.56
2019-04-14T02:44:33.626Z,4.59
2019-04-14T02:45:35.087Z,4.56
2019-04-14T02:46:32.277Z,4.59
2019-04-14T02:47:58.634Z,4.56
2019-04-14T02:48:39.722Z,4.62
2019-04-14T02:49:27.293Z,4.67
2019-04-14T02:50:24.474Z,4.65
2019-04-14T02:52:30.441Z,4.74
2019-04-14T02:53:23.960Z,4.69
2019-04-14T02:55:25.292Z,4.64
2019-04-14T02:57:30.376Z,4.64
2019-04-14T02:58:28.651Z,4.54
2019-04-14T02:59:29.076Z,4.69
2019-04-14T03:00:41.714Z,4.65
2019-04-14T03:02:30.518Z,4.56
2019-04-14T03:03:33.879Z,4.54
2019-04-14T03:04:25.999Z,4.57
2019-04-14T03:05:32.152Z,4.57
2019-04-14T03:06:25.332Z,4.65
2019-04-14T03:07:28.185Z,4.57
2019-04-14T03:10:25.809Z,4.50
2019-04-14T03:11:28.660Z,4.56
2019-04-14T03:12:31.671Z,4.62
2019-04-14T03:13:29.294Z,4.61
2019-04-14T03:15:27.988Z,4.61
2019-04-14T03:16:29.757Z,4.53
2019-04-14T03:18:31.760Z,4.56
2019-04-14T03:19:29.591Z,4.50
2019-04-14T03:21:55.095Z,4.36
2019-04-14T03:22:32.983Z,4.43
2019-04-14T03:23:32.973Z,4.38
2019-04-14T03:24:29.171Z,4.35
2019-04-14T03:25:15.202Z,4.44
2019-04-14T03:26:26.933Z,4.44
2019-04-14T03:27:30.430Z,4.39
2019-04-14T03:28:40.350Z,4.44
2019-04-14T03:29:26.879Z,4.42
2019-04-14T03:33:48.465Z,4.46
2019-04-14T03:35:52.464Z,4.42
2019-04-14T03:36:58.634Z,4.38
2019-04-14T03:38:26.085Z,4.47
2019-04-14T03:39:32.847Z,4.46
2019-04-14T03:40:27.487Z,4.35
2019-04-14T03:41:29.966Z,4.42
2019-04-14T03:42:28.907Z,4.42
2019-04-14T03:43:24.990Z,4.42
2019-04-14T03:44:33.173Z,4.34
2019-04-14T03:45:39.394Z,4.29
2019-04-14T03:46:45.096Z,4.26
2019-04-14T03:50:21.516Z,4.16
2019-04-14T03:51:34.585Z,4.28
2019-04-14T03:52:31.685Z,4.29
2019-04-14T03:53:32.145Z,4.26
2019-04-14T03:54:20.618Z,4.34
2019-04-14T03:55:16.051Z,4.32
2019-04-14T03:56:05.316Z,4.43
2019-04-14T03:56:59.899Z,4.42
2019-04-14T03:57:58.568Z,4.35
2019-04-14T03:58:59.717Z,4.34
2019-04-14T03:59:58.559Z,4.39
2019-04-14T04:00:59.667Z,4.42
2019-04-14T04:01:58.651Z,4.36
2019-04-14T04:02:59.780Z,4.29
2019-04-14T04:03:58.601Z,4.31
2019-04-14T04:04:59.794Z,4.25
2019-04-14T04:05:58.640Z,4.29
2019-04-14T04:06:59.587Z,4.36
2019-04-14T04:07:58.464Z,4.34
2019-04-14T04:08:59.577Z,4.29
2019-04-14T04:09:58.442Z,4.28
2019-04-14T04:10:59.684Z,4.31
2019-04-14T04:11:58.458Z,4.32
2019-04-14T04:12:59.530Z,4.25
2019-04-14T04:13:58.524Z,4.21
2019-04-14T04:14:59.576Z,4.25
2019-04-14T04:15:58.444Z,4.25
2019-04-14T04:16:59.431Z,4.25
2019-04-14T04:17:58.374Z,4.26
2019-04-14T04:19:05.524Z,4.26
2019-04-14T04:19:59.938Z,4.18
2019-04-14T04:20:58.794Z,4.29
2019-04-14T04:21:59.512Z,4.35
2019-04-14T04:22:58.728Z,4.26
2019-04-14T04:23:58.310Z,4.25
2019-04-14T04:24:58.593Z,4.25
2019-04-14T04:25:59.384Z,4.25
2019-04-14T04:26:58.269Z,4.25
2019-04-14T04:27:59.085Z,4.29
2019-04-14T04:28:58.399Z,4.28
2019-04-14T04:29:59.186Z,4.26
2019-04-14T04:30:58.226Z,4.25
2019-04-14T04:31:58.956Z,4.34
2019-04-14T04:32:58.206Z,4.31
2019-04-14T04:33:58.651Z,4.36
2019-04-14T04:34:58.184Z,4.36
2019-04-14T04:35:58.634Z,4.36
2019-04-14T04:36:58.166Z,4.49
2019-04-14T04:37:58.529Z,4.35
2019-04-14T04:38:58.168Z,4.46
2019-04-14T04:39:58.281Z,4.53
2019-04-14T04:40:59.306Z,4.50
2019-04-14T04:41:58.112Z,4.53
2019-04-14T04:42:59.085Z,4.42
2019-04-14T04:43:58.286Z,4.47
2019-04-14T04:44:58.119Z,4.43
2019-04-14T04:45:58.163Z,4.44
2019-04-14T04:46:59.043Z,4.36
2019-04-14T04:47:58.044Z,4.43
2019-04-14T04:49:08.272Z,4.42
2019-04-14T04:50:00.017Z,4.36
2019-04-14T04:50:58.546Z,4.26
2019-04-14T04:51:58.000Z,4.29
2019-04-14T04:52:58.272Z,4.31
2019-04-14T04:53:57.978Z,4.29
2019-04-14T04:54:58.139Z,4.24
2019-04-14T04:55:59.201Z,4.24
2019-04-14T04:56:58.082Z,4.24
2019-04-14T04:57:59.055Z,4.31
2019-04-14T04:58:58.932Z,4.34
2019-04-14T04:59:58.133Z,4.25
2019-04-14T05:00:59.456Z,4.24
2019-04-14T05:01:58.084Z,4.16
2019-04-14T05:02:57.887Z,4.20
2019-04-14T05:03:57.958Z,4.18
2019-04-14T05:04:58.894Z,4.13
2019-04-14T05:05:57.963Z,4.08
2019-04-14T05:06:59.052Z,4.08
2019-04-14T05:07:57.830Z,4.17
2019-04-14T05:08:59.070Z,4.16
2019-04-14T05:09:57.882Z,4.17
2019-04-14T05:10:58.902Z,4.18
2019-04-14T05:11:57.833Z,4.20
2019-04-14T05:12:58.615Z,4.24
2019-04-14T05:13:57.774Z,4.21
2019-04-14T05:14:58.826Z,4.14
2019-04-14T05:15:57.756Z,4.17
2019-04-14T05:16:57.733Z,4.18
2019-04-14T05:17:58.014Z,4.18
2019-04-14T05:19:10.621Z,4.20
2019-04-14T05:19:58.701Z,4.16
2019-04-14T05:20:57.699Z,4.14
2019-04-14T05:21:58.111Z,4.07
2019-04-14T05:22:57.673Z,4.18
2019-04-14T05:23:58.142Z,4.16
2019-04-14T05:24:57.649Z,4.17
2019-04-14T05:25:58.125Z,4.13
2019-04-14T05:26:57.664Z,4.20
2019-04-14T05:27:57.995Z,4.24
2019-04-14T05:28:57.613Z,4.29
2019-04-14T05:29:58.024Z,4.36
2019-04-14T05:30:58.860Z,4.28
2019-04-14T05:31:57.708Z,4.31
2019-04-14T05:32:58.516Z,4.26
2019-04-14T05:33:57.734Z,4.16
2019-04-14T05:34:58.617Z,4.21
2019-04-14T05:35:57.540Z,4.17
2019-04-14T05:36:58.501Z,4.17
2019-04-14T05:37:57.521Z,4.18
2019-04-14T05:38:58.148Z,4.16
2019-04-14T05:39:57.509Z,4.21
2019-04-14T05:40:58.349Z,4.16
2019-04-14T05:42:06.573Z,4.20
2019-04-14T05:42:58.470Z,4.16
2019-04-14T05:44:01.200Z,4.16
2019-04-14T05:44:57.894Z,4.16
2019-04-14T05:45:57.428Z,4.24
2019-04-14T05:46:57.832Z,4.28
2019-04-14T05:47:57.406Z,4.18
2019-04-14T05:48:57.874Z,4.25
2019-04-14T05:49:58.071Z,4.31
2019-04-14T05:50:57.768Z,4.29
2019-04-14T05:51:57.384Z,4.26
2019-04-14T05:52:57.914Z,4.34
2019-04-14T05:53:57.346Z,4.29
2019-04-14T05:54:57.935Z,4.35
2019-04-14T05:55:57.341Z,4.54
2019-04-14T05:56:57.958Z,4.71
2019-04-14T05:57:57.305Z,4.65
2019-04-14T05:58:58.010Z,4.62
2019-04-14T05:59:57.293Z,4.61
2019-04-14T06:00:58.013Z,4.59
2019-04-14T06:01:57.262Z,4.49
2019-04-14T06:02:57.335Z,4.47
2019-04-14T06:03:58.159Z,4.50
2019-04-14T06:04:57.225Z,4.42
2019-04-14T06:05:57.225Z,4.36
2019-04-14T06:06:57.219Z,4.36
2019-04-14T06:07:57.200Z,4.31
2019-04-14T06:08:57.182Z,4.32
2019-04-14T06:09:57.177Z,4.36
2019-04-14T06:10:57.169Z,4.35
2019-04-14T06:11:57.170Z,4.32
2019-04-14T06:12:57.146Z,4.43
2019-04-14T06:13:57.134Z,4.28
2019-04-14T06:14:57.123Z,4.28
2019-04-14T06:15:57.115Z,4.26
2019-04-14T06:16:57.152Z,4.21
2019-04-14T06:17:57.095Z,4.17
2019-04-14T06:18:57.080Z,4.17
2019-04-14T06:19:57.071Z,4.14
2019-04-14T06:20:57.055Z,4.17
2019-04-14T06:21:57.044Z,4.17
2019-04-14T06:22:57.049Z,4.18
2019-04-14T06:23:57.023Z,4.26
2019-04-14T06:24:57.012Z,4.21
2019-04-14T06:25:57.021Z,4.32
2019-04-14T06:26:56.990Z,4.29
2019-04-14T06:27:56.999Z,4.32
2019-04-14T06:28:56.974Z,4.35
2019-04-14T06:29:56.961Z,4.28
2019-04-14T06:30:56.954Z,4.24
2019-04-14T06:31:56.951Z,4.18
2019-04-14T06:32:57.501Z,4.25
2019-04-14T06:33:56.931Z,4.28
2019-04-14T06:34:56.906Z,4.24
2019-04-14T06:35:56.906Z,4.28
2019-04-14T06:36:56.898Z,4.29
2019-04-14T06:37:56.883Z,4.26
2019-04-14T06:38:56.881Z,4.21
2019-04-14T06:39:56.870Z,4.28
2019-04-14T06:40:56.846Z,4.29
2019-04-14T06:41:56.838Z,4.29
2019-04-14T06:42:56.820Z,4.32
2019-04-14T06:43:56.825Z,4.39
2019-04-14T06:44:56.828Z,4.38
2019-04-14T06:45:56.788Z,4.38
2019-04-14T06:46:56.782Z,4.42
2019-04-14T06:47:56.773Z,4.43
2019-04-14T06:48:56.756Z,4.44
2019-04-14T06:49:56.745Z,4.44
2019-04-14T06:50:56.781Z,4.42
2019-04-14T06:51:56.729Z,4.34
2019-04-14T06:52:56.720Z,4.36
2019-04-14T06:53:56.703Z,4.31
2019-04-14T06:54:56.693Z,4.34
2019-04-14T06:55:56.689Z,4.34
2019-04-14T06:56:56.689Z,4.36
2019-04-14T06:57:56.663Z,4.36
2019-04-14T06:58:56.650Z,4.44
2019-04-14T06:59:56.644Z,4.47
2019-04-14T07:00:56.659Z,4.46
2019-04-14T07:01:56.623Z,4.50
2019-04-14T07:02:56.617Z,4.43
2019-04-14T07:03:56.608Z,4.54
2019-04-14T07:04:56.588Z,4.54
2019-04-14T07:05:56.582Z,4.56
2019-04-14T07:06:56.576Z,4.47
2019-04-14T07:07:57.590Z,4.53
2019-04-14T07:08:56.545Z,4.49
2019-04-14T07:09:56.540Z,4.57
2019-04-14T07:10:56.529Z,4.53
2019-04-14T07:11:56.564Z,4.50
2019-04-14T07:12:56.509Z,4.50
2019-04-14T07:13:56.492Z,4.57
2019-04-14T07:14:56.488Z,4.54
2019-04-14T07:15:56.470Z,4.57
2019-04-14T07:16:56.461Z,4.51
2019-04-14T07:17:56.461Z,4.54
2019-04-14T07:18:56.437Z,4.51
2019-04-14T07:20:02.386Z,4.67
2019-04-14T07:20:57.425Z,4.56
2019-04-14T07:21:56.414Z,4.62
2019-04-14T07:22:56.450Z,4.61
2019-04-14T07:23:56.391Z,4.57
2019-04-14T07:24:56.379Z,4.65
2019-04-14T07:25:56.374Z,4.54
2019-04-14T07:26:56.368Z,4.61
2019-04-14T07:27:56.351Z,4.69
2019-04-14T07:28:57.132Z,4.64
2019-04-14T07:29:56.333Z,4.65
2019-04-14T07:30:56.329Z,4.62
2019-04-14T07:31:56.308Z,4.59
2019-04-14T07:32:56.298Z,4.61
2019-04-14T07:33:56.296Z,4.64
2019-04-14T07:34:56.270Z,4.49
2019-04-14T07:35:56.261Z,4.56
2019-04-14T07:36:56.249Z,4.35
2019-04-14T07:37:56.248Z,4.46
2019-04-14T07:38:56.243Z,4.46
2019-04-14T07:39:56.221Z,4.49
2019-04-14T07:40:56.213Z,4.50
2019-04-14T07:41:56.201Z,4.51
2019-04-14T07:42:56.186Z,4.64
2019-04-14T07:43:56.184Z,4.56
2019-04-14T07:44:56.177Z,4.57
2019-04-14T07:45:56.154Z,4.61
2019-04-14T07:46:56.146Z,4.59
2019-04-14T07:47:56.139Z,4.56
2019-04-14T07:48:56.124Z,4.47
2019-04-14T07:49:56.128Z,4.53
2019-04-14T07:50:56.102Z,4.57
2019-04-14T07:51:56.090Z,4.64
2019-04-14T07:52:56.080Z,4.59
2019-04-14T07:53:56.075Z,4.64
2019-04-14T07:54:56.095Z,4.62
2019-04-14T07:55:56.055Z,4.62
2019-04-14T07:56:56.041Z,4.68
2019-04-14T07:57:56.033Z,4.72
2019-04-14T07:58:56.023Z,4.68
2019-04-14T07:59:56.012Z,4.69
2019-04-14T08:00:56.014Z,4.71
2019-04-14T08:01:55.990Z,4.68
2019-04-14T08:02:55.984Z,4.79
2019-04-14T08:03:55.970Z,4.61
2019-04-14T08:04:55.962Z,4.68
2019-04-14T08:05:55.976Z,4.68
2019-04-14T08:06:55.937Z,4.69
2019-04-14T08:07:55.929Z,4.77
2019-04-14T08:08:55.917Z,4.74
2019-04-14T08:09:55.906Z,4.75
2019-04-14T08:10:55.903Z,4.74
2019-04-14T08:11:55.904Z,4.75
2019-04-14T08:12:55.875Z,4.75
2019-04-14T08:13:55.859Z,4.83
2019-04-14T08:14:55.849Z,4.90
2019-04-14T08:15:55.851Z,4.93
2019-04-14T08:16:55.855Z,4.88
2019-04-14T08:17:55.822Z,4.90
2019-04-14T08:18:55.847Z,4.86
2019-04-14T08:19:55.803Z,4.87
2019-04-14T08:20:55.789Z,4.86
2019-04-14T08:21:55.777Z,4.90
2019-04-14T08:22:57.766Z,4.99
2019-04-14T08:23:55.755Z,5.06
2019-04-14T08:24:55.744Z,5.08
2019-04-14T08:25:55.732Z,5.05
2019-04-14T08:26:55.730Z,4.97
2019-04-14T08:27:55.735Z,5.02
2019-04-14T08:28:55.705Z,5.04
2019-04-14T08:29:55.695Z,5.04
2019-04-14T08:30:55.694Z,4.91
2019-04-14T08:31:55.676Z,5.01
2019-04-14T08:32:55.662Z,5.09
2019-04-14T08:33:55.693Z,5.11
2019-04-14T08:34:55.643Z,5.01
2019-04-14T08:35:55.627Z,5.15
2019-04-14T08:36:55.623Z,5.12
2019-04-14T08:37:55.608Z,5.12
2019-04-14T08:38:55.607Z,5.24
2019-04-14T08:39:55.594Z,5.26
2019-04-14T08:40:55.583Z,5.19
2019-04-14T08:41:55.569Z,5.23
2019-04-14T08:42:55.592Z,5.32
2019-04-14T08:43:55.558Z,5.30
2019-04-14T08:46:04.334Z,5.40
2019-04-14T08:47:04.375Z,5.30
2019-04-14T08:48:04.298Z,5.35
2019-04-14T08:49:04.288Z,5.38
2019-04-14T08:50:04.288Z,5.38
2019-04-14T08:51:04.280Z,5.32
2019-04-14T08:52:04.259Z,5.27
2019-04-14T08:53:04.250Z,5.37
2019-04-14T08:54:04.241Z,5.47
2019-04-14T08:55:04.237Z,5.52
2019-04-14T08:56:04.227Z,5.58
2019-04-14T08:57:04.209Z,5.56
2019-04-14T08:58:04.421Z,5.60
2019-04-14T08:59:04.179Z,5.66
2019-04-14T09:00:04.169Z,5.65
2019-04-14T09:01:04.177Z,5.67
2019-04-14T09:02:04.154Z,5.67
2019-04-14T09:03:04.139Z,5.75
2019-04-14T09:04:04.126Z,5.75
2019-04-14T09:05:04.118Z,5.77
2019-04-14T09:06:04.137Z,5.84
2019-04-14T09:07:04.100Z,5.78
2019-04-14T09:08:04.082Z,5.78
2019-04-14T09:09:04.077Z,5.84
2019-04-14T09:10:04.063Z,5.83
2019-04-14T09:11:04.066Z,5.80
2019-04-14T09:12:14.997Z,5.88
2019-04-14T09:13:05.033Z,5.88
2019-04-14T09:14:04.021Z,5.84
2019-04-14T09:15:04.019Z,5.87
2019-04-14T09:16:04.003Z,5.84
2019-04-14T09:17:03.997Z,5.78
2019-04-14T09:18:03.981Z,5.81
2019-04-14T09:19:07.886Z,5.85
2019-04-14T09:20:03.955Z,5.77
2019-04-14T09:21:03.950Z,5.80
2019-04-14T09:22:03.968Z,5.88
2019-04-14T09:23:03.921Z,5.87
2019-04-14T09:24:03.914Z,5.93
2019-04-14T09:25:03.904Z,5.95
2019-04-14T09:26:03.896Z,6.02
2019-04-14T09:27:03.884Z,5.98
2019-04-14T09:28:03.887Z,5.93
2019-04-14T09:29:03.861Z,5.98
2019-04-14T09:30:03.858Z,5.98
2019-04-14T09:31:03.884Z,5.96
2019-04-14T09:32:03.829Z,6.01
2019-04-14T09:33:03.815Z,6.02
2019-04-14T09:34:03.830Z,5.98
2019-04-14T09:35:03.794Z,5.92
2019-04-14T09:36:03.786Z,5.99
2019-04-14T09:37:03.792Z,5.96
2019-04-14T09:38:03.761Z,5.99
2019-04-14T09:39:03.751Z,5.99
2019-04-14T09:40:03.752Z,6.05
2019-04-14T09:41:03.742Z,6.05
2019-04-14T09:42:03.726Z,6.06
2019-04-14T09:43:03.720Z,6.16
2019-04-14T09:44:03.702Z,6.13
2019-04-14T09:45:03.714Z,6.05
2019-04-14T09:46:03.680Z,6.08
2019-04-14T09:47:03.664Z,6.08
2019-04-14T09:48:03.652Z,6.06
2019-04-14T09:49:03.652Z,6.24
2019-04-14T09:50:03.637Z,6.13
2019-04-14T09:51:05.191Z,6.16
2019-04-14T09:52:03.611Z,6.16
2019-04-14T09:53:03.602Z,6.10
2019-04-14T09:54:03.590Z,6.06
2019-04-14T09:55:03.586Z,6.16
2019-04-14T09:56:03.588Z,6.03
2019-04-14T09:57:03.567Z,6.03
2019-04-14T09:58:03.552Z,6.14
2019-04-14T09:59:03.540Z,6.13
2019-04-14T10:00:03.524Z,6.06
2019-04-14T10:01:03.539Z,6.13
2019-04-14T10:02:03.511Z,6.10
2019-04-14T10:03:03.491Z,6.05
2019-04-14T10:04:03.482Z,6.14
2019-04-14T10:05:03.470Z,6.02
2019-04-14T10:06:03.498Z,6.05
2019-04-14T10:07:03.455Z,5.98
2019-04-14T10:08:03.447Z,6.06
2019-04-14T10:09:03.437Z,6.05
2019-04-14T10:10:03.417Z,5.99
2019-04-14T10:11:03.411Z,5.95
2019-04-14T10:12:03.410Z,6.05
2019-04-14T10:13:03.387Z,5.96
2019-04-14T10:14:03.374Z,6.06
2019-04-14T10:15:03.383Z,6.02
2019-04-14T10:16:03.363Z,6.03
2019-04-14T10:17:03.376Z,6.02
2019-04-14T10:18:03.339Z,6.02
2019-04-14T10:19:03.320Z,6.02
2019-04-14T10:20:03.316Z,5.99
2019-04-14T10:21:03.299Z,6.01
2019-04-14T10:22:03.298Z,6.11
2019-04-14T10:23:03.288Z,6.03
2019-04-14T10:24:03.269Z,6.11
2019-04-14T10:25:03.262Z,6.10
2019-04-14T10:26:03.251Z,6.10
2019-04-14T10:27:03.243Z,6.06
2019-04-14T10:28:03.243Z,6.13
2019-04-14T10:29:03.218Z,6.06
2019-04-14T10:30:03.204Z,6.01
2019-04-14T10:31:03.195Z,6.03
2019-04-14T10:32:03.186Z,6.16
2019-04-14T10:33:03.194Z,6.03
2019-04-14T10:34:03.166Z,6.11
2019-04-14T10:35:03.171Z,6.10
2019-04-14T10:36:03.138Z,6.14
2019-04-14T10:37:03.133Z,6.05
2019-04-14T10:38:03.125Z,6.20
2019-04-14T10:39:03.141Z,6.13
2019-04-14T10:40:05.957Z,6.14
2019-04-14T10:41:03.090Z,6.32
2019-04-14T10:42:03.073Z,6.24
2019-04-14T10:43:03.075Z,6.21
2019-04-14T10:44:03.056Z,6.24
2019-04-14T10:45:03.054Z,6.24
2019-04-14T10:46:03.041Z,6.27
2019-04-14T10:47:03.023Z,6.32
2019-04-14T10:48:03.015Z,6.28
2019-04-14T10:49:03.002Z,6.24
2019-04-14T10:50:02.992Z,6.30
2019-04-14T10:51:02.990Z,6.25
2019-04-14T10:52:02.966Z,6.27
2019-04-14T10:53:02.955Z,6.21
2019-04-14T10:54:02.952Z,6.36
2019-04-14T10:55:02.954Z,6.32
2019-04-14T10:56:02.933Z,6.33
2019-04-14T10:57:02.923Z,6.42
2019-04-14T10:58:02.902Z,6.32
2019-04-14T10:59:02.891Z,6.45
2019-04-14T11:00:02.887Z,6.39
2019-04-14T11:01:02.904Z,6.39
2019-04-14T11:02:02.874Z,6.43
2019-04-14T11:03:02.846Z,6.40
2019-04-14T11:04:02.841Z,6.40
2019-04-14T11:05:02.826Z,6.36
2019-04-14T11:06:02.826Z,6.39
2019-04-14T11:07:02.829Z,6.39
2019-04-14T11:08:02.807Z,6.43
2019-04-14T11:09:02.783Z,6.48
2019-04-14T11:10:02.800Z,6.51
2019-04-14T11:11:02.762Z,6.54
2019-04-14T11:12:02.749Z,6.48
2019-04-14T11:13:02.751Z,6.60
2019-04-14T11:14:02.745Z,6.61
2019-04-14T11:15:02.732Z,6.58
2019-04-14T11:16:02.718Z,6.61
2019-04-14T11:17:02.736Z,6.58
2019-04-14T11:18:02.699Z,6.57
2019-04-14T11:19:02.682Z,6.61
2019-04-14T11:20:02.672Z,6.58
2019-04-14T11:21:02.659Z,6.64
2019-04-14T11:22:02.649Z,6.63
2019-04-14T11:23:03.697Z,6.60
2019-04-14T11:24:02.631Z,6.55
2019-04-14T11:25:02.632Z,6.68
2019-04-14T11:26:02.603Z,6.60
2019-04-14T11:27:02.600Z,6.63
2019-04-14T11:28:02.619Z,6.69
2019-04-14T11:29:02.577Z,6.76
2019-04-14T11:30:02.565Z,6.65
2019-04-14T11:31:02.551Z,6.73
2019-04-14T11:32:02.544Z,6.61
2019-04-14T11:33:02.535Z,6.79
2019-04-14T11:34:02.522Z,6.78
2019-04-14T11:35:02.512Z,6.79
2019-04-14T11:36:02.493Z,6.76
2019-04-14T11:37:02.493Z,6.79
2019-04-14T11:38:02.474Z,6.73
2019-04-14T11:39:02.473Z,6.75
2019-04-14T11:40:02.458Z,6.78
2019-04-14T11:41:02.451Z,6.78
2019-04-14T11:42:02.447Z,6.82
2019-04-14T11:43:02.419Z,6.87
2019-04-14T11:44:02.417Z,6.99
2019-04-14T11:45:02.402Z,6.96
2019-04-14T11:46:03.881Z,6.96
2019-04-14T11:47:02.397Z,7.01
2019-04-14T11:48:02.369Z,7.01
2019-04-14T11:49:02.353Z,7.08
2019-04-14T11:50:02.363Z,7.15
2019-04-14T11:51:02.332Z,7.08
2019-04-14T11:52:02.329Z,7.08
2019-04-14T11:53:02.349Z,7.11
2019-04-14T11:54:02.302Z,7.18
2019-04-14T11:55:02.291Z,7.12
2019-04-14T11:56:02.287Z,7.27
2019-04-14T11:57:02.272Z,7.27
2019-04-14T11:58:02.265Z,7.30
2019-04-14T11:59:02.274Z,7.41
2019-04-14T12:00:02.264Z,7.33
2019-04-14T12:01:02.232Z,7.44
2019-04-14T12:02:02.235Z,7.50
2019-04-14T12:03:02.207Z,7.44
2019-04-14T12:04:02.194Z,7.51
2019-04-14T12:05:02.186Z,7.50
2019-04-14T12:06:02.186Z,7.42
2019-04-14T12:07:02.159Z,7.42
2019-04-14T12:08:02.154Z,7.58
2019-04-14T12:09:02.148Z,7.51
2019-04-14T12:10:02.136Z,7.69
2019-04-14T12:11:02.152Z,7.66
2019-04-14T12:12:02.109Z,7.69
2019-04-14T12:13:02.096Z,7.63
2019-04-14T12:14:02.086Z,7.69
2019-04-14T12:15:02.073Z,7.76
2019-04-14T12:16:02.066Z,7.91
2019-04-14T12:17:02.067Z,7.82
2019-04-14T12:18:02.041Z,7.89
2019-04-14T12:19:02.032Z,7.88
2019-04-14T12:20:02.026Z,7.88
2019-04-14T12:21:02.007Z,7.96
2019-04-14T12:22:08.227Z,7.89
2019-04-14T12:23:02.987Z,8.00
2019-04-14T12:24:01.974Z,8.03
2019-04-14T12:25:01.968Z,8.02
2019-04-14T12:26:05.616Z,8.02
2019-04-14T12:27:01.945Z,8.07
2019-04-14T12:28:02.548Z,8.10
2019-04-14T12:29:03.592Z,8.07
2019-04-14T12:30:01.923Z,8.17
2019-04-14T12:31:02.084Z,8.13
2019-04-14T12:32:01.893Z,8.25
2019-04-14T12:33:01.880Z,8.28
2019-04-14T12:34:01.877Z,8.50
2019-04-14T12:35:01.855Z,8.60
2019-04-14T12:36:01.847Z,8.73
2019-04-14T12:37:01.840Z,8.75
2019-04-14T12:38:01.823Z,8.79
2019-04-14T12:39:01.816Z,8.82
2019-04-14T12:40:02.774Z,8.89
2019-04-14T12:41:02.485Z,9.04
2019-04-14T12:42:01.792Z,9.01
2019-04-14T12:43:09.565Z,9.12
2019-04-14T12:44:09.600Z,9.19
2019-04-14T12:45:08.800Z,9.19
2019-04-14T12:46:01.743Z,8.96
2019-04-14T12:47:01.729Z,8.98
2019-04-14T12:48:09.679Z,8.88
2019-04-14T12:49:10.195Z,9.01
2019-04-14T12:50:01.715Z,8.89
2019-04-14T12:51:01.687Z,8.89
2019-04-14T12:52:01.675Z,8.93
2019-04-14T12:53:01.674Z,8.98
2019-04-14T12:54:01.653Z,8.98
2019-04-14T12:55:09.741Z,8.97
2019-04-14T12:56:01.635Z,9.00
2019-04-14T12:57:01.623Z,8.88
2019-04-14T12:58:01.609Z,8.91
2019-04-14T12:59:01.599Z,8.91
2019-04-14T13:00:01.582Z,8.98
2019-04-14T13:01:01.671Z,9.00
2019-04-14T13:02:01.562Z,8.98
2019-04-14T13:03:01.550Z,8.88
2019-04-14T13:04:01.544Z,8.82
2019-04-14T13:05:02.228Z,8.93
2019-04-14T13:06:01.527Z,8.97
2019-04-14T13:07:01.540Z,9.00
2019-04-14T13:08:01.495Z,9.16
2019-04-14T13:09:01.489Z,9.16
2019-04-14T13:10:01.487Z,9.30
2019-04-14T13:11:01.468Z,9.30
2019-04-14T13:12:01.456Z,9.30
2019-04-14T13:13:08.511Z,9.37
2019-04-14T13:14:09.277Z,9.31
2019-04-14T13:15:09.301Z,9.31
2019-04-14T13:16:01.417Z,9.20
2019-04-14T13:17:09.330Z,9.35
2019-04-14T13:18:08.466Z,9.37
2019-04-14T13:19:01.382Z,9.41
2019-04-14T13:20:01.365Z,9.48
2019-04-14T13:21:01.353Z,9.55
2019-04-14T13:22:08.890Z,9.62
2019-04-14T13:23:08.922Z,9.60
2019-04-14T13:24:08.409Z,9.59
2019-04-14T13:25:08.964Z,9.63
2019-04-14T13:26:08.328Z,9.65
2019-04-14T13:27:01.293Z,9.67
2019-04-14T13:28:01.284Z,9.67
2019-04-14T13:29:01.277Z,9.68
2019-04-14T13:30:01.271Z,9.68
2019-04-14T13:31:01.249Z,9.75
2019-04-14T13:32:01.242Z,9.71
2019-04-14T13:33:01.233Z,9.65
2019-04-14T13:34:01.220Z,9.71
2019-04-14T13:35:01.212Z,9.73
2019-04-14T13:36:01.195Z,9.63
2019-04-14T13:38:03.856Z,9.68